sensor_id;sensor_type;location;lat;lon;timestamp;pressure;altitude;pressure_sealevel;temperature;humidity
75640;BME280;64233;51.486;6.332;2022-12-07T00:01:07;101437.16;;;2.75;100.00
75640;BME280;64233;51.486;6.332;2022-12-07T00:03:41;101432.50;;;2.77;100.00
75640;BME280;64233;51.486;6.332;2022-12-07T00:06:09;101439.66;;;2.77;100.00
75640;BME280;64233;51.486;6.332;2022-12-07T00:08:35;101445.09;;;2.75;100.00
75640;BME280;64233;51.486;6.332;2022-12-07T00:11:08;101433.88;;;2.73;100.00
75640;BME280;64233;51.486;6.332;2022-12-07T00:13:34;101426.91;;;2.72;100.00
75640;BME280;64233;51.486;6.332;2022-12-07T00:16:08;101423.81;;;2.68;100.00
75640;BME280;64233;51.486;6.332;2022-12-07T00:18:35;101430.66;;;2.63;100.00
75640;BME280;64233;51.486;6.332;2022-12-07T00:21:01;101426.28;;;2.70;100.00
75640;BME280;64233;51.486;6.332;2022-12-07T00:23:27;101436.59;;;2.65;100.00
75640;BME280;64233;51.486;6.332;2022-12-07T00:25:52;101429.50;;;2.65;100.00
75640;BME280;64233;51.486;6.332;2022-12-07T00:28:18;101424.19;;;2.65;100.00
75640;BME280;64233;51.486;6.332;2022-12-07T00:30:43;101424.72;;;2.61;100.00
75640;BME280;64233;51.486;6.332;2022-12-07T00:33:08;101426.53;;;2.60;100.00
75640;BME280;64233;51.486;6.332;2022-12-07T00:35:33;101404.88;;;2.56;100.00
75640;BME280;64233;51.486;6.332;2022-12-07T00:37:58;101412.00;;;2.56;100.00
75640;BME280;64233;51.486;6.332;2022-12-07T00:40:24;101424.97;;;2.51;100.00
75640;BME280;64233;51.486;6.332;2022-12-07T00:42:49;101426.00;;;2.50;100.00
75640;BME280;64233;51.486;6.332;2022-12-07T00:45:14;101415.41;;;2.50;100.00
75640;BME280;64233;51.486;6.332;2022-12-07T00:47:40;101420.97;;;2.55;100.00
75640;BME280;64233;51.486;6.332;2022-12-07T00:50:05;101419.59;;;2.59;100.00
75640;BME280;64233;51.486;6.332;2022-12-07T00:52:31;101411.28;;;2.62;100.00
75640;BME280;64233;51.486;6.332;2022-12-07T00:54:56;101408.38;;;2.57;100.00
75640;BME280;64233;51.486;6.332;2022-12-07T00:57:21;101415.13;;;2.60;100.00
75640;BME280;64233;51.486;6.332;2022-12-07T00:59:47;101410.03;;;2.58;100.00
75640;BME280;64233;51.486;6.332;2022-12-07T01:02:13;101400.22;;;2.58;100.00
75640;BME280;64233;51.486;6.332;2022-12-07T01:04:38;101401.97;;;2.51;100.00
75640;BME280;64233;51.486;6.332;2022-12-07T01:07:10;101400.31;;;2.50;100.00
75640;BME280;64233;51.486;6.332;2022-12-07T01:09:35;101399.09;;;2.38;100.00
75640;BME280;64233;51.486;6.332;2022-12-07T01:12:00;101394.16;;;2.35;100.00
75640;BME280;64233;51.486;6.332;2022-12-07T01:14:26;101398.84;;;2.33;100.00
75640;BME280;64233;51.486;6.332;2022-12-07T01:16:51;101403.84;;;2.28;100.00
75640;BME280;64233;51.486;6.332;2022-12-07T01:19:16;101401.09;;;2.21;100.00
75640;BME280;64233;51.486;6.332;2022-12-07T01:21:42;101406.63;;;2.11;100.00
75640;BME280;64233;51.486;6.332;2022-12-07T01:24:13;101407.28;;;2.13;100.00
75640;BME280;64233;51.486;6.332;2022-12-07T01:26:45;101403.09;;;2.19;100.00
75640;BME280;64233;51.486;6.332;2022-12-07T01:29:10;101397.81;;;2.19;100.00
75640;BME280;64233;51.486;6.332;2022-12-07T01:31:36;101402.63;;;2.15;100.00
75640;BME280;64233;51.486;6.332;2022-12-07T01:34:01;101402.75;;;2.22;100.00
75640;BME280;64233;51.486;6.332;2022-12-07T01:36:34;101408.75;;;2.16;100.00
75640;BME280;64233;51.486;6.332;2022-12-07T01:39:03;101401.81;;;2.15;100.00
75640;BME280;64233;51.486;6.332;2022-12-07T01:41:32;101407.47;;;2.12;100.00
75640;BME280;64233;51.486;6.332;2022-12-07T01:44:23;101407.53;;;2.03;100.00
75640;BME280;64233;51.486;6.332;2022-12-07T01:46:57;101400.22;;;2.05;100.00
75640;BME280;64233;51.486;6.332;2022-12-07T01:49:37;101405.53;;;2.05;100.00
75640;BME280;64233;51.486;6.332;2022-12-07T01:52:30;101401.34;;;2.11;100.00
75640;BME280;64233;51.486;6.332;2022-12-07T01:55:03;101401.34;;;2.11;100.00
75640;BME280;64233;51.486;6.332;2022-12-07T01:57:31;101400.16;;;2.14;100.00
75640;BME280;64233;51.486;6.332;2022-12-07T01:59:57;101407.28;;;2.13;100.00
75640;BME280;64233;51.486;6.332;2022-12-07T02:02:37;101403.84;;;2.13;100.00
75640;BME280;64233;51.486;6.332;2022-12-07T02:05:04;101408.53;;;2.02;100.00
75640;BME280;64233;51.486;6.332;2022-12-07T02:07:31;101398.31;;;1.99;100.00
75640;BME280;64233;51.486;6.332;2022-12-07T02:10:23;101404.59;;;1.98;100.00
75640;BME280;64233;51.486;6.332;2022-12-07T02:12:54;101399.38;;;1.90;100.00
75640;BME280;64233;51.486;6.332;2022-12-07T02:15:21;101394.78;;;1.84;100.00
75640;BME280;64233;51.486;6.332;2022-12-07T02:18:06;101393.13;;;1.83;100.00
75640;BME280;64233;51.486;6.332;2022-12-07T02:20:38;101390.25;;;1.69;100.00
75640;BME280;64233;51.486;6.332;2022-12-07T02:23:23;101394.81;;;1.61;100.00
75640;BME280;64233;51.486;6.332;2022-12-07T02:26:29;101397.25;;;1.62;100.00
75640;BME280;64233;51.486;6.332;2022-12-07T02:29:11;101395.91;;;1.66;100.00
75640;BME280;64233;51.486;6.332;2022-12-07T02:31:43;101390.25;;;1.69;100.00
75640;BME280;64233;51.486;6.332;2022-12-07T02:34:24;101387.25;;;1.72;100.00
75640;BME280;64233;51.486;6.332;2022-12-07T02:36:57;101392.44;;;1.66;100.00
75640;BME280;64233;51.486;6.332;2022-12-07T02:39:40;101396.16;;;1.57;100.00
75640;BME280;64233;51.486;6.332;2022-12-07T02:42:14;101389.56;;;1.52;100.00
75640;BME280;64233;51.486;6.332;2022-12-07T02:44:41;101393.69;;;1.55;100.00
75640;BME280;64233;51.486;6.332;2022-12-07T02:47:10;101392.38;;;1.51;100.00
75640;BME280;64233;51.486;6.332;2022-12-07T02:49:38;101398.44;;;1.60;100.00
75640;BME280;64233;51.486;6.332;2022-12-07T02:52:04;101400.13;;;1.52;100.00
75640;BME280;64233;51.486;6.332;2022-12-07T02:54:29;101393.97;;;1.60;100.00
75640;BME280;64233;51.486;6.332;2022-12-07T03:00:11;101388.63;;;1.45;100.00
75640;BME280;64233;51.486;6.332;2022-12-07T03:13:34;101399.19;;;1.22;100.00
75640;BME280;64233;51.486;6.332;2022-12-07T03:16:15;101385.09;;;1.22;100.00
75640;BME280;64233;51.486;6.332;2022-12-07T03:18:52;101393.75;;;1.15;100.00
75640;BME280;64233;51.486;6.332;2022-12-07T03:21:22;101389.66;;;1.05;100.00
75640;BME280;64233;51.486;6.332;2022-12-07T03:23:51;101400.41;;;1.03;100.00
75640;BME280;64233;51.486;6.332;2022-12-07T03:26:19;101390.50;;;1.05;100.00
75640;BME280;64233;51.486;6.332;2022-12-07T03:28:55;101389.81;;;1.03;100.00
75640;BME280;64233;51.486;6.332;2022-12-07T03:31:24;101385.38;;;1.03;100.00
75640;BME280;64233;51.486;6.332;2022-12-07T03:36:43;101388.66;;;1.06;100.00
75640;BME280;64233;51.486;6.332;2022-12-07T03:39:36;101387.38;;;1.01;100.00
75640;BME280;64233;51.486;6.332;2022-12-07T03:41:59;101391.66;;;1.02;100.00
75640;BME280;64233;51.486;6.332;2022-12-07T03:44:27;101391.34;;;0.97;100.00
75640;BME280;64233;51.486;6.332;2022-12-07T03:47:06;101400.75;;;1.00;100.00
75640;BME280;64233;51.486;6.332;2022-12-07T03:50:02;101393.78;;;1.07;100.00
75640;BME280;64233;51.486;6.332;2022-12-07T03:52:44;101394.38;;;1.17;100.00
75640;BME280;64233;51.486;6.332;2022-12-07T03:55:18;101400.31;;;1.28;100.00
75640;BME280;64233;51.486;6.332;2022-12-07T03:57:47;101395.13;;;1.34;100.00
75640;BME280;64233;51.486;6.332;2022-12-07T04:00:14;101397.41;;;1.37;100.00
75640;BME280;64233;51.486;6.332;2022-12-07T04:02:40;101391.13;;;1.38;100.00
75640;BME280;64233;51.486;6.332;2022-12-07T04:05:07;101395.88;;;1.43;100.00
75640;BME280;64233;51.486;6.332;2022-12-07T04:07:32;101391.25;;;1.45;100.00
75640;BME280;64233;51.486;6.332;2022-12-07T04:09:57;101389.97;;;1.41;100.00
75640;BME280;64233;51.486;6.332;2022-12-07T04:12:23;101385.03;;;1.38;100.00
75640;BME280;64233;51.486;6.332;2022-12-07T04:14:48;101385.25;;;1.28;100.00
75640;BME280;64233;51.486;6.332;2022-12-07T04:17:14;101388.88;;;1.27;100.00
75640;BME280;64233;51.486;6.332;2022-12-07T04:19:39;101379.63;;;1.23;100.00
75640;BME280;64233;51.486;6.332;2022-12-07T04:22:05;101381.66;;;1.21;100.00
75640;BME280;64233;51.486;6.332;2022-12-07T04:24:30;101386.41;;;1.26;100.00
75640;BME280;64233;51.486;6.332;2022-12-07T04:26:56;101378.00;;;1.22;100.00
75640;BME280;64233;51.486;6.332;2022-12-07T04:29:22;101380.47;;;1.24;100.00
75640;BME280;64233;51.486;6.332;2022-12-07T04:31:48;101384.94;;;1.23;100.00
75640;BME280;64233;51.486;6.332;2022-12-07T04:34:14;101383.63;;;1.19;100.00
75640;BME280;64233;51.486;6.332;2022-12-07T04:36:40;101379.53;;;1.16;100.00
75640;BME280;64233;51.486;6.332;2022-12-07T04:39:07;101378.72;;;1.08;100.00
75640;BME280;64233;51.486;6.332;2022-12-07T04:41:33;101380.72;;;1.06;100.00
75640;BME280;64233;51.486;6.332;2022-12-07T04:44:00;101377.59;;;1.02;100.00
75640;BME280;64233;51.486;6.332;2022-12-07T04:46:27;101376.59;;;1.03;100.00
75640;BME280;64233;51.486;6.332;2022-12-07T04:48:53;101364.53;;;1.09;100.00
75640;BME280;64233;51.486;6.332;2022-12-07T04:51:27;101365.50;;;1.08;100.00
75640;BME280;64233;51.486;6.332;2022-12-07T04:53:53;101366.16;;;1.10;100.00
75640;BME280;64233;51.486;6.332;2022-12-07T04:56:19;101368.66;;;1.11;100.00
75640;BME280;64233;51.486;6.332;2022-12-07T04:58:46;101364.47;;;1.17;100.00
75640;BME280;64233;51.486;6.332;2022-12-07T05:01:12;101355.38;;;1.19;100.00
75640;BME280;64233;51.486;6.332;2022-12-07T05:03:38;101361.78;;;1.25;100.00
75640;BME280;64233;51.486;6.332;2022-12-07T05:06:04;101356.97;;;1.29;100.00
75640;BME280;64233;51.486;6.332;2022-12-07T05:08:29;101356.47;;;1.33;100.00
75640;BME280;64233;51.486;6.332;2022-12-07T05:10:55;101361.56;;;1.35;100.00
75640;BME280;64233;51.486;6.332;2022-12-07T05:13:20;101356.56;;;1.40;100.00
75640;BME280;64233;51.486;6.332;2022-12-07T05:15:49;101361.16;;;1.46;100.00
75640;BME280;64233;51.486;6.332;2022-12-07T05:18:14;101371.56;;;1.48;100.00
75640;BME280;64233;51.486;6.332;2022-12-07T05:20:41;101370.53;;;1.49;100.00
75640;BME280;64233;51.486;6.332;2022-12-07T05:23:06;101369.56;;;1.50;100.00
75640;BME280;64233;51.486;6.332;2022-12-07T05:25:32;101365.75;;;1.52;100.00
75640;BME280;64233;51.486;6.332;2022-12-07T05:27:57;101368.22;;;1.54;100.00
75640;BME280;64233;51.486;6.332;2022-12-07T05:30:23;101370.69;;;1.55;100.00
75640;BME280;64233;51.486;6.332;2022-12-07T05:32:49;101371.66;;;1.54;100.00
75640;BME280;64233;51.486;6.332;2022-12-07T05:35:14;101373.81;;;1.59;100.00
75640;BME280;64233;51.486;6.332;2022-12-07T05:37:39;101373.44;;;1.62;100.00
75640;BME280;64233;51.486;6.332;2022-12-07T05:40:05;101366.84;;;1.58;100.00
75640;BME280;64233;51.486;6.332;2022-12-07T05:42:31;101362.19;;;1.60;100.00
75640;BME280;64233;51.486;6.332;2022-12-07T05:44:56;101370.00;;;1.62;100.00
75640;BME280;64233;51.486;6.332;2022-12-07T05:47:22;101363.41;;;1.58;100.00
75640;BME280;64233;51.486;6.332;2022-12-07T05:49:47;101361.09;;;1.54;100.00
75640;BME280;64233;51.486;6.332;2022-12-07T05:52:12;101359.91;;;1.57;100.00
75640;BME280;64233;51.486;6.332;2022-12-07T05:54:38;101358.56;;;1.61;100.00
75640;BME280;64233;51.486;6.332;2022-12-07T05:57:03;101359.22;;;1.63;100.00
75640;BME280;64233;51.486;6.332;2022-12-07T05:59:28;101357.03;;;1.67;100.00
75640;BME280;64233;51.486;6.332;2022-12-07T06:01:56;101360.03;;;1.64;100.00
75640;BME280;64233;51.486;6.332;2022-12-07T06:04:23;101358.38;;;1.63;100.00
75640;BME280;64233;51.486;6.332;2022-12-07T06:06:50;101352.09;;;1.64;100.00
75640;BME280;64233;51.486;6.332;2022-12-07T06:09:16;101356.91;;;1.60;100.00
75640;BME280;64233;51.486;6.332;2022-12-07T06:11:43;101357.75;;;1.61;100.00
75640;BME280;64233;51.486;6.332;2022-12-07T06:14:28;101354.44;;;1.59;100.00
75640;BME280;64233;51.486;6.332;2022-12-07T06:16:53;101348.88;;;1.53;100.00
75640;BME280;64233;51.486;6.332;2022-12-07T06:19:18;101356.50;;;1.48;100.00
75640;BME280;64233;51.486;6.332;2022-12-07T06:21:44;101355.03;;;1.46;100.00
75640;BME280;64233;51.486;6.332;2022-12-07T06:24:13;101354.22;;;1.45;100.00
75640;BME280;64233;51.486;6.332;2022-12-07T06:26:39;101358.03;;;1.43;100.00
75640;BME280;64233;51.486;6.332;2022-12-07T06:29:05;101363.69;;;1.40;100.00
75640;BME280;64233;51.486;6.332;2022-12-07T06:31:30;101363.38;;;1.34;100.00
75640;BME280;64233;51.486;6.332;2022-12-07T06:34:00;101362.03;;;1.38;100.00
75640;BME280;64233;51.486;6.332;2022-12-07T06:36:26;101365.63;;;1.46;100.00
75640;BME280;64233;51.486;6.332;2022-12-07T06:38:52;101358.84;;;1.43;100.00
75640;BME280;64233;51.486;6.332;2022-12-07T06:41:17;101358.56;;;1.38;100.00
75640;BME280;64233;51.486;6.332;2022-12-07T06:43:43;101365.75;;;1.29;100.00
75640;BME280;64233;51.486;6.332;2022-12-07T06:46:08;101367.66;;;1.35;100.00
75640;BME280;64233;51.486;6.332;2022-12-07T06:48:33;101374.19;;;1.25;100.00
75640;BME280;64233;51.486;6.332;2022-12-07T06:50:59;101367.47;;;1.14;100.00
75640;BME280;64233;51.486;6.332;2022-12-07T06:53:24;101372.41;;;1.17;100.00
75640;BME280;64233;51.486;6.332;2022-12-07T06:55:50;101365.97;;;1.19;100.00
75640;BME280;64233;51.486;6.332;2022-12-07T06:58:16;101370.41;;;1.19;100.00
75640;BME280;64233;51.486;6.332;2022-12-07T07:00:42;101376.41;;;1.13;100.00
75640;BME280;64233;51.486;6.332;2022-12-07T07:03:07;101369.00;;;1.08;100.00
75640;BME280;64233;51.486;6.332;2022-12-07T07:05:33;101360.22;;;1.08;100.00
75640;BME280;64233;51.486;6.332;2022-12-07T07:07:58;101358.94;;;1.03;100.00
75640;BME280;64233;51.486;6.332;2022-12-07T07:10:23;101369.25;;;0.82;100.00
75640;BME280;64233;51.486;6.332;2022-12-07T07:12:49;101366.44;;;0.83;100.00
75640;BME280;64233;51.486;6.332;2022-12-07T07:15:14;101373.03;;;0.88;100.00
75640;BME280;64233;51.486;6.332;2022-12-07T07:17:39;101370.91;;;0.91;100.00
75640;BME280;64233;51.486;6.332;2022-12-07T07:20:05;101370.91;;;0.83;100.00
75640;BME280;64233;51.486;6.332;2022-12-07T07:22:31;101371.56;;;0.85;100.00
75640;BME280;64233;51.486;6.332;2022-12-07T07:25:03;101372.25;;;0.79;100.00
75640;BME280;64233;51.486;6.332;2022-12-07T07:27:35;101374.25;;;0.77;100.00
75640;BME280;64233;51.486;6.332;2022-12-07T07:30:01;101377.88;;;0.76;100.00
75640;BME280;64233;51.486;6.332;2022-12-07T07:32:26;101378.25;;;0.73;100.00
75640;BME280;64233;51.486;6.332;2022-12-07T07:34:51;101380.56;;;0.67;100.00
75640;BME280;64233;51.486;6.332;2022-12-07T07:37:17;101385.50;;;0.71;100.00
75640;BME280;64233;51.486;6.332;2022-12-07T07:39:42;101388.47;;;0.76;100.00
75640;BME280;64233;51.486;6.332;2022-12-07T07:42:07;101384.31;;;0.81;100.00
75640;BME280;64233;51.486;6.332;2022-12-07T07:44:34;101376.06;;;0.76;100.00
75640;BME280;64233;51.486;6.332;2022-12-07T07:46:59;101386.16;;;0.73;100.00
75640;BME280;64233;51.486;6.332;2022-12-07T07:49:25;101388.81;;;0.64;100.00
75640;BME280;64233;51.486;6.332;2022-12-07T07:51:51;101386.81;;;0.66;100.00
75640;BME280;64233;51.486;6.332;2022-12-07T07:54:16;101385.31;;;0.72;100.00
75640;BME280;64233;51.486;6.332;2022-12-07T07:56:41;101389.25;;;0.84;100.00
75640;BME280;64233;51.486;6.332;2022-12-07T07:59:07;101393.53;;;0.94;100.00
75640;BME280;64233;51.486;6.332;2022-12-07T08:01:32;101394.97;;;0.96;100.00
75640;BME280;64233;51.486;6.332;2022-12-07T08:03:57;101394.31;;;1.02;100.00
75640;BME280;64233;51.486;6.332;2022-12-07T08:06:23;101397.72;;;1.11;100.00
75640;BME280;64233;51.486;6.332;2022-12-07T08:08:48;101388.41;;;1.24;100.00
75640;BME280;64233;51.486;6.332;2022-12-07T08:11:13;101390.84;;;1.33;100.00
75640;BME280;64233;51.486;6.332;2022-12-07T08:13:39;101394.25;;;1.42;100.00
75640;BME280;64233;51.486;6.332;2022-12-07T08:16:06;101397.84;;;1.49;100.00
75640;BME280;64233;51.486;6.332;2022-12-07T08:18:39;101392.03;;;1.54;100.00
75640;BME280;64233;51.486;6.332;2022-12-07T08:21:06;101394.97;;;1.59;100.00
75640;BME280;64233;51.486;6.332;2022-12-07T08:23:32;101396.47;;;1.62;100.00
75640;BME280;64233;51.486;6.332;2022-12-07T08:26:03;101399.72;;;1.64;100.00
75640;BME280;64233;51.486;6.332;2022-12-07T08:28:29;101397.25;;;1.62;100.00
75640;BME280;64233;51.486;6.332;2022-12-07T08:31:21;101404.53;;;1.60;100.00
75640;BME280;64233;51.486;6.332;2022-12-07T08:33:47;101401.25;;;1.58;100.00
75640;BME280;64233;51.486;6.332;2022-12-07T08:36:13;101398.13;;;1.54;100.00
75640;BME280;64233;51.486;6.332;2022-12-07T08:38:39;101395.03;;;1.51;100.00
75640;BME280;64233;51.486;6.332;2022-12-07T08:41:05;101400.94;;;1.53;100.00
75640;BME280;64233;51.486;6.332;2022-12-07T08:43:31;101407.84;;;1.62;100.00
75640;BME280;64233;51.486;6.332;2022-12-07T08:46:08;101405.97;;;1.71;100.00
75640;BME280;64233;51.486;6.332;2022-12-07T08:48:42;101404.75;;;1.82;100.00
75640;BME280;64233;51.486;6.332;2022-12-07T08:51:10;101397.38;;;1.92;100.00
75640;BME280;64233;51.486;6.332;2022-12-07T08:53:37;101391.91;;;1.94;100.00
75640;BME280;64233;51.486;6.332;2022-12-07T08:56:03;101397.72;;;1.89;100.00
75640;BME280;64233;51.486;6.332;2022-12-07T08:58:29;101391.16;;;1.85;100.00
75640;BME280;64233;51.486;6.332;2022-12-07T09:00:55;101395.09;;;1.89;100.00
75640;BME280;64233;51.486;6.332;2022-12-07T09:03:20;101396.19;;;1.95;100.00
75640;BME280;64233;51.486;6.332;2022-12-07T09:05:45;101391.91;;;1.94;100.00
75640;BME280;64233;51.486;6.332;2022-12-07T09:08:11;101389.25;;;1.94;100.00
75640;BME280;64233;51.486;6.332;2022-12-07T09:10:36;101394.09;;;1.90;100.00
75640;BME280;64233;51.486;6.332;2022-12-07T09:13:02;101403.16;;;1.96;100.00
75640;BME280;64233;51.486;6.332;2022-12-07T09:15:28;101399.28;;;1.98;100.00
75640;BME280;64233;51.486;6.332;2022-12-07T09:17:54;101398.31;;;1.99;100.00
75640;BME280;64233;51.486;6.332;2022-12-07T09:20:19;101397.31;;;2.00;100.00
75640;BME280;64233;51.486;6.332;2022-12-07T09:22:44;101402.88;;;2.05;100.00
75640;BME280;64233;51.486;6.332;2022-12-07T09:25:10;101409.28;;;2.11;100.00
75640;BME280;64233;51.486;6.332;2022-12-07T09:27:35;101402.63;;;2.15;100.00
75640;BME280;64233;51.486;6.332;2022-12-07T09:30:00;101410.25;;;2.18;100.00
75640;BME280;64233;51.486;6.332;2022-12-07T09:32:26;101404.41;;;2.23;100.00
75640;BME280;64233;51.486;6.332;2022-12-07T09:34:51;101406.03;;;2.24;100.00
75640;BME280;64233;51.486;6.332;2022-12-07T09:37:17;101405.50;;;2.29;100.00
75640;BME280;64233;51.486;6.332;2022-12-07T09:39:42;101410.25;;;2.33;100.00
75640;BME280;64233;51.486;6.332;2022-12-07T09:42:08;101407.53;;;2.41;100.00
75640;BME280;64233;51.486;6.332;2022-12-07T09:44:35;101402.03;;;2.43;100.00
75640;BME280;64233;51.486;6.332;2022-12-07T09:47:01;101409.72;;;2.53;100.00
75640;BME280;64233;51.486;6.332;2022-12-07T09:49:30;101407.38;;;2.58;100.00
75640;BME280;64233;51.486;6.332;2022-12-07T09:52:26;101402.31;;;2.63;100.00
75640;BME280;64233;51.486;6.332;2022-12-07T09:54:52;101399.59;;;2.71;100.00
75640;BME280;64233;51.486;6.332;2022-12-07T09:57:27;101412.19;;;2.84;100.00
75640;BME280;64233;51.486;6.332;2022-12-07T09:59:55;101407.78;;;2.91;100.00
75640;BME280;64233;51.486;6.332;2022-12-07T10:05:03;101399.47;;;3.09;100.00
75640;BME280;64233;51.486;6.332;2022-12-07T10:07:29;101398.47;;;3.10;100.00
75640;BME280;64233;51.486;6.332;2022-12-07T10:09:54;101395.63;;;3.12;100.00
75640;BME280;64233;51.486;6.332;2022-12-07T10:12:20;101390.31;;;3.12;100.00
75640;BME280;64233;51.486;6.332;2022-12-07T10:15:00;101394.41;;;3.15;100.00
75640;BME280;64233;51.486;6.332;2022-12-07T10:23:04;101394.78;;;3.48;100.00
75640;BME280;64233;51.486;6.332;2022-12-07T10:25:34;101394.59;;;3.50;100.00
75640;BME280;64233;51.486;6.332;2022-12-07T10:28:12;101386.25;;;3.53;100.00
75640;BME280;64233;51.486;6.332;2022-12-07T10:33:35;101375.31;;;3.62;100.00
75640;BME280;64233;51.486;6.332;2022-12-07T10:39:01;101371.22;;;3.82;100.00
75640;BME280;64233;51.486;6.332;2022-12-07T10:41:28;101367.16;;;3.86;100.00
75640;BME280;64233;51.486;6.332;2022-12-07T10:43:56;101364.31;;;3.87;100.00
75640;BME280;64233;51.486;6.332;2022-12-07T10:49:36;101357.13;;;3.59;100.00
75640;BME280;64233;51.486;6.332;2022-12-07T10:57:40;101354.66;;;4.08;100.00
75640;BME280;64233;51.486;6.332;2022-12-07T11:00:21;101354.06;;;4.12;100.00
75640;BME280;64233;51.486;6.332;2022-12-07T11:11:01;101355.47;;;3.80;100.00
75640;BME280;64233;51.486;6.332;2022-12-07T11:16:24;101341.03;;;3.89;100.00
75640;BME280;64233;51.486;6.332;2022-12-07T11:21:56;101338.22;;;4.26;100.00
75640;BME280;64233;51.486;6.332;2022-12-07T11:27:10;101332.25;;;4.17;100.00
75640;BME280;64233;51.486;6.332;2022-12-07T11:38:17;101321.75;;;4.09;100.00
75640;BME280;64233;51.486;6.332;2022-12-07T11:40:45;101325.19;;;4.03;100.00
75640;BME280;64233;51.486;6.332;2022-12-07T11:43:32;101315.63;;;4.08;100.00
75640;BME280;64233;51.486;6.332;2022-12-07T11:46:11;101311.38;;;4.14;100.00
75640;BME280;64233;51.486;6.332;2022-12-07T11:48:46;101310.72;;;4.12;100.00
75640;BME280;64233;51.486;6.332;2022-12-07T11:51:12;101314.03;;;4.14;100.00
75640;BME280;64233;51.486;6.332;2022-12-07T11:53:44;101310.13;;;4.10;100.00
75640;BME280;64233;51.486;6.332;2022-12-07T11:56:14;101313.19;;;4.13;100.00
75640;BME280;64233;51.486;6.332;2022-12-07T12:06:43;101301.59;;;4.21;100.00
75640;BME280;64233;51.486;6.332;2022-12-07T12:14:43;101300.03;;;4.34;100.00
75640;BME280;64233;51.486;6.332;2022-12-07T12:17:36;101296.75;;;4.31;100.00
75640;BME280;64233;51.486;6.332;2022-12-07T12:23:19;101295.09;;;4.30;100.00
75640;BME280;64233;51.486;6.332;2022-12-07T12:26:19;101297.16;;;4.35;100.00
75640;BME280;64233;51.486;6.332;2022-12-07T12:33:56;101272.84;;;4.31;99.81
75640;BME280;64233;51.486;6.332;2022-12-07T12:39:09;101271.78;;;4.26;98.63
75640;BME280;64233;51.486;6.332;2022-12-07T12:47:37;101264.66;;;4.33;100.00
75640;BME280;64233;51.486;6.332;2022-12-07T12:57:33;101250.00;;;4.44;98.67
75640;BME280;64233;51.486;6.332;2022-12-07T13:00:01;101243.25;;;4.48;97.93
75640;BME280;64233;51.486;6.332;2022-12-07T13:15:42;101239.00;;;4.54;97.68
75640;BME280;64233;51.486;6.332;2022-12-07T13:23:27;101236.94;;;4.56;98.66
75640;BME280;64233;51.486;6.332;2022-12-07T13:28:43;101234.72;;;4.59;99.29
75640;BME280;64233;51.486;6.332;2022-12-07T13:31:25;101232.63;;;4.55;98.70
75640;BME280;64233;51.486;6.332;2022-12-07T13:33:52;101231.81;;;4.54;99.08
75640;BME280;64233;51.486;6.332;2022-12-07T13:36:30;101219.94;;;4.50;98.66
75640;BME280;64233;51.486;6.332;2022-12-07T13:39:11;101211.13;;;4.43;99.16
75640;BME280;64233;51.486;6.332;2022-12-07T13:41:42;101211.53;;;4.40;100.00
75640;BME280;64233;51.486;6.332;2022-12-07T13:44:14;101219.50;;;4.40;99.72
75640;BME280;64233;51.486;6.332;2022-12-07T13:49:17;101209.91;;;4.45;99.28
75640;BME280;64233;51.486;6.332;2022-12-07T13:51:43;101207.06;;;4.47;98.87
75640;BME280;64233;51.486;6.332;2022-12-07T13:54:10;101204.59;;;4.45;99.33
75640;BME280;64233;51.486;6.332;2022-12-07T13:56:36;101199.69;;;4.42;99.15
75640;BME280;64233;51.486;6.332;2022-12-07T13:59:03;101197.59;;;4.38;98.65
75640;BME280;64233;51.486;6.332;2022-12-07T14:01:30;101194.13;;;4.37;99.51
75640;BME280;64233;51.486;6.332;2022-12-07T14:04:27;101191.47;;;4.37;99.30
75640;BME280;64233;51.486;6.332;2022-12-07T14:06:54;101185.75;;;4.40;98.09
75640;BME280;64233;51.486;6.332;2022-12-07T14:09:21;101184.75;;;4.41;96.80
75640;BME280;64233;51.486;6.332;2022-12-07T14:11:48;101184.75;;;4.41;97.02
75640;BME280;64233;51.486;6.332;2022-12-07T14:14:19;101184.50;;;4.36;97.41
75640;BME280;64233;51.486;6.332;2022-12-07T14:16:56;101187.38;;;4.35;98.23
75640;BME280;64233;51.486;6.332;2022-12-07T14:22:36;101179.72;;;4.11;98.94
75640;BME280;64233;51.486;6.332;2022-12-07T14:27:46;101174.09;;;3.86;98.64
75640;BME280;64233;51.486;6.332;2022-12-07T14:30:16;101173.03;;;3.81;97.87
75640;BME280;64233;51.486;6.332;2022-12-07T14:32:42;101164.22;;;3.73;98.69
75640;BME280;64233;51.486;6.332;2022-12-07T14:35:15;101156.00;;;3.61;98.87
75640;BME280;64233;51.486;6.332;2022-12-07T14:37:43;101156.56;;;3.57;98.86
75640;BME280;64233;51.486;6.332;2022-12-07T14:40:13;101149.78;;;3.48;99.12
75640;BME280;64233;51.486;6.332;2022-12-07T14:42:39;101151.94;;;3.37;99.59
75640;BME280;64233;51.486;6.332;2022-12-07T14:45:06;101156.00;;;3.33;99.85
75640;BME280;64233;51.486;6.332;2022-12-07T14:47:31;101162.25;;;3.25;100.00
75640;BME280;64233;51.486;6.332;2022-12-07T14:49:57;101162.00;;;3.20;100.00
75640;BME280;64233;51.486;6.332;2022-12-07T14:52:25;101155.28;;;3.18;100.00
75640;BME280;64233;51.486;6.332;2022-12-07T14:54:52;101158.13;;;3.16;100.00
75640;BME280;64233;51.486;6.332;2022-12-07T14:57:17;101154.03;;;3.14;100.00
75640;BME280;64233;51.486;6.332;2022-12-07T14:59:42;101155.22;;;3.11;100.00
75640;BME280;64233;51.486;6.332;2022-12-07T15:02:11;101150.72;;;3.12;100.00
75640;BME280;64233;51.486;6.332;2022-12-07T15:04:36;101149.44;;;3.01;100.00
75640;BME280;64233;51.486;6.332;2022-12-07T15:07:04;101157.25;;;2.87;100.00
75640;BME280;64233;51.486;6.332;2022-12-07T15:09:30;101156.75;;;2.77;100.00
75640;BME280;64233;51.486;6.332;2022-12-07T15:11:55;101153.59;;;2.88;100.00